createdAt,value
2023-03-19T00:00:39.701Z,1.10
2023-03-19T00:03:10.979Z,1.00
2023-03-19T00:05:40.344Z,0.77
2023-03-19T00:08:11.411Z,0.80
2023-03-19T00:10:43.359Z,0.80
2023-03-19T00:13:15.962Z,0.90
2023-03-19T00:15:44.247Z,0.90
2023-03-19T00:18:15.872Z,0.83
2023-03-19T00:20:43.648Z,0.97
2023-03-19T00:23:14.722Z,0.80
2023-03-19T00:25:42.662Z,1.10
2023-03-19T00:28:14.501Z,0.80
2023-03-19T00:30:48.420Z,1.00
2023-03-19T00:33:17.933Z,0.90
2023-03-19T00:35:47.268Z,0.90
2023-03-19T00:38:22.558Z,0.90
2023-03-19T00:40:50.559Z,0.80
2023-03-19T00:43:23.082Z,1.10
2023-03-19T00:45:53.788Z,0.83
2023-03-19T00:48:25.466Z,0.70
2023-03-19T00:50:53.299Z,0.90
2023-03-19T00:53:24.204Z,1.07
2023-03-19T00:55:56.397Z,1.10
2023-03-19T00:58:27.985Z,0.97
2023-03-19T01:01:05.279Z,1.13
2023-03-19T01:03:42.128Z,1.03
2023-03-19T01:06:13.022Z,0.70
2023-03-19T01:08:45.130Z,0.80
2023-03-19T01:11:29.978Z,0.87
2023-03-19T01:14:03.015Z,1.17
2023-03-19T01:16:33.928Z,1.00
2023-03-19T01:19:11.337Z,1.10
2023-03-19T01:21:45.598Z,0.87
2023-03-19T01:24:18.680Z,0.90
2023-03-19T01:26:45.714Z,1.00
2023-03-19T01:29:18.087Z,1.10
2023-03-19T01:31:48.977Z,1.00
2023-03-19T01:34:20.891Z,1.00
2023-03-19T01:36:52.749Z,1.20
2023-03-19T01:39:26.188Z,1.20
2023-03-19T01:41:58.514Z,1.33
2023-03-19T01:44:39.766Z,1.00
2023-03-19T01:47:14.176Z,1.00
2023-03-19T01:49:48.136Z,0.80
2023-03-19T01:52:19.548Z,1.03
2023-03-19T01:54:51.841Z,1.10
2023-03-19T01:57:20.119Z,1.10
2023-03-19T02:00:04.225Z,1.10
2023-03-19T02:02:49.202Z,1.03
2023-03-19T02:05:30.730Z,1.00
2023-03-19T02:08:16.991Z,1.10
2023-03-19T02:10:50.979Z,1.00
2023-03-19T02:13:24.217Z,0.97
2023-03-19T02:15:57.079Z,1.10
2023-03-19T02:18:28.667Z,1.07
2023-03-19T02:21:12.276Z,1.13
2023-03-19T02:24:17.898Z,1.57
2023-03-19T02:26:50.089Z,1.10
2023-03-19T02:29:24.021Z,1.07
2023-03-19T02:31:54.038Z,1.10
2023-03-19T02:34:27.225Z,1.20
2023-03-19T02:37:27.376Z,1.10
2023-03-19T02:40:17.760Z,1.10
2023-03-19T02:45:30.390Z,0.83
2023-03-19T02:48:04.495Z,1.37
2023-03-19T02:50:34.828Z,0.97
2023-03-19T02:53:06.520Z,1.00
2023-03-19T02:55:39.769Z,1.10
2023-03-19T02:58:14.212Z,1.10
2023-03-19T03:00:45.076Z,1.00
2023-03-19T03:03:16.723Z,1.10
2023-03-19T03:05:48.033Z,1.00
2023-03-19T03:08:17.965Z,1.00
2023-03-19T03:10:48.595Z,0.90
2023-03-19T03:13:19.515Z,0.97
2023-03-19T03:15:50.185Z,1.20
2023-03-19T03:18:24.360Z,1.23
2023-03-19T03:20:55.819Z,1.00
2023-03-19T03:23:26.980Z,1.00
2023-03-19T03:25:56.154Z,1.10
2023-03-19T03:28:25.219Z,0.80
2023-03-19T03:31:02.516Z,0.97
2023-03-19T03:33:33.970Z,0.80
2023-03-19T03:36:05.565Z,0.77
2023-03-19T03:38:38.175Z,1.00
2023-03-19T03:41:08.910Z,0.93
2023-03-19T03:43:39.292Z,1.10
2023-03-19T03:46:11.518Z,1.10
2023-03-19T03:48:40.470Z,0.83
2023-03-19T03:51:10.081Z,0.90
2023-03-19T03:53:39.011Z,1.03
2023-03-19T03:56:08.849Z,0.83
2023-03-19T03:58:38.146Z,0.77
2023-03-19T04:01:08.111Z,0.80
2023-03-19T04:03:37.387Z,0.77
2023-03-19T04:06:06.874Z,1.00
2023-03-19T04:08:37.479Z,0.90
2023-03-19T04:11:10.922Z,0.73
2023-03-19T04:13:40.707Z,0.70
2023-03-19T04:16:10.443Z,0.87
2023-03-19T04:18:38.277Z,0.90
2023-03-19T04:21:11.244Z,0.77
2023-03-19T04:23:43.196Z,0.90
2023-03-19T04:26:16.421Z,1.10
2023-03-19T04:28:44.743Z,1.03
2023-03-19T04:31:16.006Z,0.83
2023-03-19T04:33:44.700Z,0.83
2023-03-19T04:36:16.574Z,1.10
2023-03-19T04:38:46.718Z,1.20
2023-03-19T04:41:17.671Z,0.97
2023-03-19T04:43:46.620Z,1.10
2023-03-19T04:46:19.814Z,1.10
2023-03-19T04:48:49.955Z,1.00
2023-03-19T04:51:40.135Z,1.30
2023-03-19T04:54:06.830Z,0.83
2023-03-19T04:56:39.964Z,0.77
2023-03-19T04:59:25.346Z,0.97
2023-03-19T05:01:54.104Z,0.90
2023-03-19T05:04:28.954Z,0.90
2023-03-19T05:06:58.419Z,0.93
2023-03-19T05:09:26.729Z,1.03
2023-03-19T05:11:56.743Z,1.13
2023-03-19T05:14:25.271Z,1.10
2023-03-19T05:16:54.650Z,0.80
2023-03-19T05:19:26.196Z,0.90
2023-03-19T05:21:57.395Z,0.73
2023-03-19T05:24:29.266Z,0.70
2023-03-19T05:27:00.645Z,0.87
2023-03-19T05:29:35.999Z,0.80
2023-03-19T05:32:06.700Z,1.10
2023-03-19T05:34:34.771Z,1.07
2023-03-19T05:37:04.121Z,0.90
2023-03-19T05:39:34.264Z,0.80
2023-03-19T05:44:48.093Z,1.00
2023-03-19T05:47:17.549Z,1.00
2023-03-19T05:49:47.795Z,0.90
2023-03-19T05:52:18.370Z,0.80
2023-03-19T05:54:52.365Z,1.20
2023-03-19T05:57:22.407Z,1.20
2023-03-19T05:59:52.941Z,0.80
2023-03-19T06:02:23.184Z,0.70
2023-03-19T06:04:51.272Z,1.00
2023-03-19T06:07:21.496Z,0.90
2023-03-19T06:09:52.864Z,1.10
2023-03-19T06:12:20.925Z,0.80
2023-03-19T06:14:50.744Z,1.10
2023-03-19T06:17:18.645Z,1.10
2023-03-19T06:19:48.046Z,1.00
2023-03-19T06:22:17.106Z,1.30
2023-03-19T06:24:46.211Z,1.10
2023-03-19T06:27:17.043Z,0.80
2023-03-19T06:29:47.463Z,1.00
2023-03-19T06:32:19.228Z,1.20
2023-03-19T06:34:50.962Z,1.40
2023-03-19T06:37:21.486Z,1.00
2023-03-19T06:39:52.038Z,1.00
2023-03-19T06:42:29.205Z,0.93
2023-03-19T06:45:00.210Z,1.20
2023-03-19T06:47:29.645Z,1.00
2023-03-19T06:50:01.350Z,1.20
2023-03-19T06:52:36.634Z,1.00
2023-03-19T06:57:53.254Z,0.90
2023-03-19T07:00:24.933Z,1.43
2023-03-19T07:05:39.641Z,1.00
2023-03-19T07:08:11.812Z,1.30
2023-03-19T07:10:47.148Z,0.93
2023-03-19T07:13:20.528Z,1.37
2023-03-19T07:15:49.408Z,1.00
2023-03-19T07:18:20.080Z,1.20
2023-03-19T07:20:51.430Z,1.20
2023-03-19T07:23:24.654Z,0.90
2023-03-19T07:25:53.406Z,1.17
2023-03-19T07:28:23.140Z,1.00
2023-03-19T07:30:53.759Z,1.07
2023-03-19T07:33:25.761Z,1.17
2023-03-19T07:36:08.929Z,1.20
2023-03-19T07:38:40.128Z,1.30
2023-03-19T07:41:11.519Z,0.97
2023-03-19T07:43:43.104Z,1.10
2023-03-19T07:46:11.920Z,1.10
2023-03-19T07:48:43.332Z,0.97
2023-03-19T07:51:15.123Z,1.03
2023-03-19T07:53:43.322Z,1.00
2023-03-19T07:56:13.267Z,1.20
2023-03-19T07:58:43.262Z,1.10
2023-03-19T08:01:15.292Z,1.10
2023-03-19T08:03:45.378Z,1.37
2023-03-19T08:06:16.906Z,1.30
2023-03-19T08:08:47.528Z,1.23
2023-03-19T08:11:18.719Z,1.60
2023-03-19T08:13:52.274Z,1.80
2023-03-19T08:16:22.375Z,1.60
2023-03-19T08:18:56.225Z,1.60
2023-03-19T08:21:25.627Z,1.60
2023-03-19T08:23:56.057Z,1.70
2023-03-19T08:26:26.384Z,1.63
2023-03-19T08:28:57.187Z,1.60
2023-03-19T08:31:27.446Z,1.80
2023-03-19T08:34:09.672Z,1.60
2023-03-19T08:36:42.879Z,1.77
2023-03-19T08:39:13.197Z,1.60
2023-03-19T08:41:41.776Z,2.03
2023-03-19T08:44:12.756Z,1.90
2023-03-19T08:46:48.210Z,1.70
2023-03-19T08:49:16.724Z,1.60
2023-03-19T08:51:44.637Z,1.90
2023-03-19T08:54:16.598Z,1.80
2023-03-19T08:56:48.605Z,1.83
2023-03-19T08:59:19.019Z,1.90
2023-03-19T09:01:53.429Z,1.93
2023-03-19T09:04:45.614Z,1.70
2023-03-19T09:07:16.919Z,2.07
2023-03-19T09:09:50.805Z,2.10
2023-03-19T09:12:24.193Z,2.23
2023-03-19T09:14:52.300Z,2.00
2023-03-19T09:17:23.589Z,1.90
2023-03-19T09:22:34.564Z,2.20
2023-03-19T09:25:10.115Z,2.23
2023-03-19T09:27:42.340Z,2.50
2023-03-19T09:30:13.768Z,2.20
2023-03-19T09:32:44.309Z,2.00
2023-03-19T09:35:22.267Z,2.27
2023-03-19T09:37:52.193Z,2.00
2023-03-19T09:40:48.479Z,2.07
2023-03-19T09:43:44.011Z,2.03
2023-03-19T09:46:22.954Z,2.17
2023-03-19T09:48:57.443Z,2.20
2023-03-19T09:54:46.546Z,1.93
2023-03-19T09:57:22.896Z,2.10
2023-03-19T09:59:58.146Z,2.17
2023-03-19T10:02:44.006Z,1.93
2023-03-19T10:05:53.009Z,2.00
2023-03-19T10:09:07.762Z,1.70
2023-03-19T10:12:00.283Z,1.67
2023-03-19T10:14:58.093Z,1.90
2023-03-19T10:18:17.158Z,1.60
2023-03-19T10:21:24.191Z,1.90
2023-03-19T10:26:45.884Z,1.77
2023-03-19T10:29:26.599Z,1.50
2023-03-19T10:32:10.924Z,1.50
2023-03-19T10:34:51.023Z,1.93
2023-03-19T10:37:48.129Z,1.77
2023-03-19T10:40:30.945Z,1.87
2023-03-19T10:43:24.023Z,1.90
2023-03-19T10:45:56.920Z,1.70
2023-03-19T10:48:28.417Z,1.67
2023-03-19T10:51:08.851Z,1.50
2023-03-19T10:53:38.679Z,1.17
2023-03-19T10:56:28.609Z,1.73
2023-03-19T10:59:12.047Z,1.60
2023-03-19T11:01:46.047Z,1.83
2023-03-19T11:04:26.551Z,1.60
2023-03-19T11:09:46.728Z,1.67
2023-03-19T11:12:42.079Z,2.00
2023-03-19T11:15:35.604Z,1.60
2023-03-19T11:18:27.179Z,1.70
2023-03-19T11:21:05.449Z,1.70
2023-03-19T11:23:43.552Z,1.70
2023-03-19T11:26:19.698Z,1.67
2023-03-19T11:29:05.759Z,1.57
2023-03-19T11:32:21.716Z,1.77
2023-03-19T11:35:22.141Z,1.70
2023-03-19T11:38:07.383Z,1.43
2023-03-19T11:40:52.768Z,1.80
2023-03-19T11:44:01.216Z,1.53
2023-03-19T11:46:40.080Z,1.57
2023-03-19T11:49:28.370Z,1.57
2023-03-19T11:52:16.736Z,1.60
2023-03-19T11:55:03.041Z,1.70
2023-03-19T11:57:53.180Z,1.73
2023-03-19T12:00:39.389Z,1.63
2023-03-19T12:03:34.196Z,1.70
2023-03-19T12:06:37.048Z,1.73
2023-03-19T12:09:31.785Z,1.63
2023-03-19T12:12:27.461Z,1.50
2023-03-19T12:15:08.271Z,1.50
2023-03-19T12:18:05.030Z,1.50
2023-03-19T12:21:03.754Z,1.60
2023-03-19T12:24:09.174Z,1.40
2023-03-19T12:27:11.354Z,1.50
2023-03-19T12:29:57.075Z,1.23
2023-03-19T12:33:00.823Z,1.43
2023-03-19T12:35:38.790Z,1.20
2023-03-19T12:38:47.043Z,1.50
2023-03-19T12:41:35.464Z,1.43
2023-03-19T12:44:32.510Z,1.37
2023-03-19T12:47:14.740Z,1.50
2023-03-19T12:49:54.730Z,1.40
2023-03-19T12:52:44.225Z,1.10
2023-03-19T12:55:49.447Z,1.47
2023-03-19T12:58:32.794Z,1.10
2023-03-19T13:01:17.636Z,1.13
2023-03-19T13:07:29.191Z,1.37
2023-03-19T13:10:13.581Z,1.20
2023-03-19T13:12:44.672Z,1.40
2023-03-19T13:15:47.874Z,1.27
2023-03-19T13:18:46.423Z,1.30
2023-03-19T13:21:29.527Z,1.10
2023-03-19T13:24:37.176Z,1.07
2023-03-19T13:27:11.149Z,1.10
2023-03-19T13:30:13.571Z,1.40
2023-03-19T13:33:17.498Z,1.10
2023-03-19T13:35:50.680Z,1.17
2023-03-19T13:41:39.733Z,1.27
2023-03-19T13:44:23.180Z,1.10
2023-03-19T13:46:52.993Z,1.20
2023-03-19T13:49:36.789Z,1.17
2023-03-19T13:52:33.534Z,1.20
2023-03-19T13:55:25.124Z,1.50
2023-03-19T13:58:47.068Z,1.40
2023-03-19T14:01:37.212Z,1.30
2023-03-19T14:04:07.077Z,1.10
2023-03-19T14:06:42.852Z,1.10
2023-03-19T14:15:30.479Z,1.37
2023-03-19T14:18:09.797Z,1.30
2023-03-19T14:20:59.464Z,1.53
2023-03-19T14:23:41.254Z,1.47
2023-03-19T14:26:23.264Z,1.63
2023-03-19T14:29:10.910Z,1.57
2023-03-19T14:32:10.764Z,1.97
2023-03-19T14:34:45.806Z,1.73
2023-03-19T14:37:30.355Z,1.87
2023-03-19T14:40:35.297Z,1.90
2023-03-19T14:43:31.937Z,2.03
2023-03-19T14:46:05.692Z,2.13
2023-03-19T14:49:01.929Z,2.60
2023-03-19T14:52:00.977Z,2.20
2023-03-19T14:55:03.324Z,2.67
2023-03-19T14:57:36.716Z,2.20
2023-03-19T15:00:13.097Z,2.37
2023-03-19T15:03:21.109Z,2.60
2023-03-19T15:05:56.222Z,2.50
2023-03-19T15:08:29.101Z,2.47
2023-03-19T15:11:34.085Z,2.30
2023-03-19T15:14:27.912Z,2.53
2023-03-19T15:17:19.529Z,2.70
2023-03-19T15:19:51.016Z,3.00
2023-03-19T15:22:47.900Z,3.23
2023-03-19T15:25:26.997Z,3.10
2023-03-19T15:28:10.346Z,2.40
2023-03-19T15:30:52.268Z,3.10
2023-03-19T15:33:39.408Z,2.80
2023-03-19T15:36:24.266Z,3.53
2023-03-19T15:39:02.581Z,3.10
2023-03-19T15:44:46.953Z,4.37
2023-03-19T15:50:19.513Z,3.57
2023-03-19T15:53:06.738Z,3.23
2023-03-19T15:55:36.678Z,3.57
2023-03-19T15:58:10.378Z,3.43
2023-03-19T16:03:39.896Z,3.57
2023-03-19T16:06:38.791Z,3.83
2023-03-19T16:09:29.275Z,3.67
2023-03-19T16:12:00.594Z,3.73
2023-03-19T16:14:32.623Z,4.40
2023-03-19T16:17:04.126Z,3.57
2023-03-19T16:19:49.879Z,3.87
2023-03-19T16:22:22.676Z,3.70
2023-03-19T16:24:55.140Z,4.57
2023-03-19T16:27:37.306Z,4.03
2023-03-19T16:30:28.605Z,4.20
2023-03-19T16:35:54.621Z,4.30
2023-03-19T16:41:36.878Z,4.60
2023-03-19T16:44:22.429Z,4.57
2023-03-19T16:46:52.713Z,4.97
2023-03-19T16:49:23.452Z,5.13
2023-03-19T16:51:51.708Z,5.10
2023-03-19T16:54:29.058Z,5.47
2023-03-19T16:56:57.973Z,5.30
2023-03-19T16:59:34.354Z,5.40
2023-03-19T17:02:02.756Z,5.80
2023-03-19T17:04:35.953Z,5.50
2023-03-19T17:07:07.014Z,5.97
2023-03-19T17:09:35.642Z,6.07
2023-03-19T17:12:29.333Z,5.80
2023-03-19T17:15:00.818Z,6.03
2023-03-19T17:17:32.827Z,5.20
2023-03-19T17:20:04.756Z,5.30
2023-03-19T17:22:39.360Z,6.07
2023-03-19T17:25:14.075Z,5.43
2023-03-19T17:27:44.469Z,5.67
2023-03-19T17:30:13.790Z,5.87
2023-03-19T17:32:59.963Z,5.43
2023-03-19T17:35:31.765Z,5.33
2023-03-19T17:38:02.396Z,5.03
2023-03-19T17:40:31.896Z,5.20
2023-03-19T17:43:03.497Z,4.80
2023-03-19T17:45:36.958Z,4.90
2023-03-19T17:48:24.737Z,4.40
2023-03-19T17:50:58.629Z,4.60
2023-03-19T17:53:32.053Z,4.27
2023-03-19T17:56:03.733Z,4.57
2023-03-19T17:58:35.083Z,5.00
2023-03-19T18:01:06.689Z,4.57
2023-03-19T18:03:36.159Z,4.67
2023-03-19T18:08:52.093Z,5.20
2023-03-19T18:14:07.249Z,4.90
2023-03-19T18:16:36.072Z,5.60
2023-03-19T18:19:11.272Z,5.50
2023-03-19T18:21:42.274Z,5.07
2023-03-19T18:24:12.716Z,5.23
2023-03-19T18:26:43.880Z,5.77
2023-03-19T18:29:14.774Z,5.63
2023-03-19T18:31:46.135Z,6.23
2023-03-19T18:34:17.008Z,5.57
2023-03-19T18:36:48.544Z,5.40
2023-03-19T18:39:22.823Z,5.77
2023-03-19T18:41:54.892Z,5.50
2023-03-19T18:44:31.908Z,5.97
2023-03-19T18:47:02.462Z,5.63
2023-03-19T18:49:29.630Z,5.40
2023-03-19T18:52:03.160Z,5.73
2023-03-19T18:54:37.659Z,6.37
2023-03-19T18:57:18.594Z,7.87
2023-03-19T18:59:50.473Z,6.87
2023-03-19T19:02:47.646Z,6.57
2023-03-19T19:08:21.200Z,5.97
2023-03-19T19:10:56.724Z,5.03
2023-03-19T19:13:46.159Z,4.77
2023-03-19T19:16:24.576Z,5.27
2023-03-19T19:18:59.760Z,5.00
2023-03-19T19:21:31.935Z,4.37
2023-03-19T19:24:01.430Z,4.67
2023-03-19T19:26:38.701Z,4.37
2023-03-19T19:29:14.374Z,3.53
2023-03-19T19:31:43.889Z,3.73
2023-03-19T19:34:18.161Z,3.70
2023-03-19T19:36:48.648Z,3.83
2023-03-19T19:39:19.896Z,3.77
2023-03-19T19:41:49.670Z,3.80
2023-03-19T19:44:24.923Z,3.03
2023-03-19T19:46:59.487Z,3.67
2023-03-19T19:49:30.665Z,3.70
2023-03-19T19:52:00.251Z,3.50
2023-03-19T19:54:33.184Z,3.13
2023-03-19T19:57:01.437Z,3.37
2023-03-19T20:02:29.597Z,3.00
2023-03-19T20:05:00.550Z,3.80
2023-03-19T20:07:31.013Z,3.20
2023-03-19T20:10:02.284Z,3.07
2023-03-19T20:12:35.768Z,2.87
2023-03-19T20:15:04.015Z,2.50
2023-03-19T20:17:32.282Z,2.40
2023-03-19T20:20:04.078Z,3.20
2023-03-19T20:22:34.342Z,2.33
2023-03-19T20:25:04.411Z,2.30
2023-03-19T20:27:32.765Z,3.13
2023-03-19T20:30:08.384Z,2.77
2023-03-19T20:32:52.441Z,2.60
2023-03-19T20:35:28.951Z,2.37
2023-03-19T20:37:57.871Z,2.20
2023-03-19T20:40:37.006Z,2.67
2023-03-19T20:43:22.284Z,3.30
2023-03-19T20:45:55.425Z,3.03
2023-03-19T20:48:29.269Z,2.93
2023-03-19T20:51:02.794Z,3.30
2023-03-19T20:53:35.244Z,2.90
2023-03-19T20:56:10.490Z,3.03
2023-03-19T20:58:43.186Z,3.80
2023-03-19T21:01:16.867Z,3.70
2023-03-19T21:03:51.436Z,3.70
2023-03-19T21:06:27.082Z,2.63
2023-03-19T21:09:00.951Z,2.63
2023-03-19T21:11:43.526Z,2.20
2023-03-19T21:14:22.537Z,3.20
2023-03-19T21:16:52.229Z,2.87
2023-03-19T21:19:23.812Z,2.83
2023-03-19T21:21:58.897Z,2.90
2023-03-19T21:24:29.306Z,3.17
2023-03-19T21:27:09.498Z,2.83
2023-03-19T21:29:40.580Z,2.67
2023-03-19T21:32:17.888Z,2.53
2023-03-19T21:34:59.642Z,3.27
2023-03-19T21:37:28.360Z,3.40
2023-03-19T21:39:58.859Z,3.57
2023-03-19T21:42:33.439Z,3.03
2023-03-19T21:45:02.703Z,2.93
2023-03-19T21:47:32.242Z,2.60
2023-03-19T21:50:02.838Z,2.80
2023-03-19T21:52:49.938Z,2.73
2023-03-19T21:55:27.992Z,2.63
2023-03-19T21:58:00.975Z,2.47
2023-03-19T22:00:33.620Z,2.70
2023-03-19T22:03:01.852Z,2.57
2023-03-19T22:05:31.711Z,2.33
2023-03-19T22:08:14.843Z,2.80
2023-03-19T22:10:47.139Z,2.97
2023-03-19T22:13:28.051Z,2.20
2023-03-19T22:16:04.760Z,2.27
2023-03-19T22:18:39.162Z,2.40
2023-03-19T22:21:11.978Z,2.17
2023-03-19T22:23:40.827Z,1.97
2023-03-19T22:26:28.172Z,2.30
2023-03-19T22:31:45.918Z,1.97
2023-03-19T22:34:18.499Z,2.17
2023-03-19T22:36:49.192Z,2.30
2023-03-19T22:39:21.255Z,1.90
2023-03-19T22:41:52.509Z,2.20
2023-03-19T22:44:34.071Z,2.20
2023-03-19T22:47:05.830Z,1.90
2023-03-19T22:52:19.132Z,2.20
2023-03-19T22:54:50.552Z,1.87
2023-03-19T22:57:21.291Z,1.87
2023-03-19T22:59:51.741Z,2.10
2023-03-19T23:02:22.365Z,1.93
2023-03-19T23:04:53.801Z,2.13
2023-03-19T23:07:21.757Z,1.70
2023-03-19T23:09:52.384Z,1.70
2023-03-19T23:12:24.308Z,2.00
2023-03-19T23:14:53.420Z,1.97
2023-03-19T23:17:25.521Z,1.87
2023-03-19T23:19:59.559Z,1.57
2023-03-19T23:22:32.113Z,1.53
2023-03-19T23:25:03.387Z,1.73
2023-03-19T23:27:31.936Z,1.90
2023-03-19T23:30:02.990Z,1.80
2023-03-19T23:32:32.837Z,1.80
2023-03-19T23:35:02.237Z,2.00
2023-03-19T23:37:33.642Z,1.80
2023-03-19T23:40:06.192Z,1.63
2023-03-19T23:42:36.643Z,1.40
2023-03-19T23:45:06.869Z,1.77
2023-03-19T23:47:40.148Z,1.73
2023-03-19T23:50:12.628Z,1.50
2023-03-19T23:52:42.631Z,1.40
2023-03-19T23:55:13.180Z,1.50
2023-03-19T23:57:44.097Z,1.10
